createdAt,value
2022-12-06T00:01:44.258Z,2.14
2022-12-06T00:04:16.145Z,2.20
2022-12-06T00:06:51.604Z,2.11
2022-12-06T00:09:23.831Z,2.12
2022-12-06T00:11:54.011Z,2.06
2022-12-06T00:14:24.156Z,2.18
2022-12-06T00:16:54.393Z,2.13
2022-12-06T00:19:25.906Z,2.14
2022-12-06T00:21:58.150Z,2.14
2022-12-06T00:24:27.775Z,2.08
2022-12-06T00:26:57.311Z,2.04
2022-12-06T00:29:27.329Z,2.02
2022-12-06T00:31:57.080Z,2.01
2022-12-06T00:34:26.802Z,2.04
2022-12-06T00:36:58.999Z,2.14
2022-12-06T00:39:28.589Z,2.15
2022-12-06T00:41:58.542Z,2.20
2022-12-06T00:44:28.106Z,2.14
2022-12-06T00:46:57.775Z,2.20
2022-12-06T00:49:27.385Z,2.28
2022-12-06T00:51:59.596Z,2.31
2022-12-06T00:54:29.226Z,2.31
2022-12-06T00:56:58.859Z,2.32
2022-12-06T00:59:28.443Z,2.28
2022-12-06T01:01:58.198Z,2.26
2022-12-06T01:04:27.733Z,2.30
2022-12-06T01:06:59.947Z,2.37
2022-12-06T01:09:31.046Z,2.45
2022-12-06T01:12:00.846Z,2.46
2022-12-06T01:14:30.481Z,2.53
2022-12-06T01:17:00.203Z,2.49
2022-12-06T01:19:30.506Z,2.56
2022-12-06T01:22:02.759Z,2.60
2022-12-06T01:24:32.381Z,2.64
2022-12-06T01:27:01.944Z,2.58
2022-12-06T01:29:31.521Z,2.55
2022-12-06T01:32:01.189Z,2.54
2022-12-06T01:34:30.819Z,2.61
2022-12-06T01:37:03.055Z,2.61
2022-12-06T01:39:32.599Z,2.67
2022-12-06T01:42:02.464Z,2.65
2022-12-06T01:44:43.587Z,2.63
2022-12-06T01:47:18.798Z,2.60
2022-12-06T01:49:54.793Z,2.67
2022-12-06T01:52:29.188Z,2.68
2022-12-06T01:54:59.472Z,2.69
2022-12-06T01:57:29.391Z,2.70
2022-12-06T01:59:59.150Z,2.72
2022-12-06T02:02:29.148Z,2.73
2022-12-06T02:04:59.644Z,2.74
2022-12-06T02:07:32.734Z,2.80
2022-12-06T02:10:02.572Z,2.88
2022-12-06T02:12:32.310Z,2.90
2022-12-06T02:15:02.910Z,2.91
2022-12-06T02:17:41.839Z,2.91
2022-12-06T02:20:21.816Z,2.89
2022-12-06T02:23:09.537Z,2.95
2022-12-06T02:26:03.990Z,2.94
2022-12-06T02:29:02.242Z,2.91
2022-12-06T02:31:37.473Z,2.97
2022-12-06T02:34:12.082Z,2.95
2022-12-06T02:36:45.393Z,2.99
2022-12-06T02:39:19.603Z,2.94
2022-12-06T02:41:53.892Z,2.94
2022-12-06T02:44:29.239Z,2.92
2022-12-06T02:47:02.453Z,2.95
2022-12-06T02:49:34.807Z,2.95
2022-12-06T02:52:04.952Z,2.96
2022-12-06T02:54:34.998Z,2.97
2022-12-06T02:57:04.671Z,3.03
2022-12-06T02:59:34.306Z,3.10
2022-12-06T03:02:09.738Z,3.08
2022-12-06T03:04:49.848Z,3.11
2022-12-06T03:07:28.640Z,3.13
2022-12-06T03:10:07.206Z,3.07
2022-12-06T03:12:43.478Z,3.07
2022-12-06T03:15:17.193Z,3.12
2022-12-06T03:17:51.557Z,3.09
2022-12-06T03:20:27.753Z,3.10
2022-12-06T03:23:02.410Z,3.08
2022-12-06T03:25:32.269Z,3.16
2022-12-06T03:28:02.583Z,3.12
2022-12-06T03:30:33.880Z,3.14
2022-12-06T03:33:06.575Z,3.07
2022-12-06T03:35:37.413Z,3.10
2022-12-06T03:38:09.273Z,3.07
2022-12-06T03:40:41.451Z,3.09
2022-12-06T03:43:11.034Z,3.07
2022-12-06T03:45:44.076Z,3.01
2022-12-06T03:48:19.041Z,3.03
2022-12-06T03:50:56.944Z,3.07
2022-12-06T03:53:28.029Z,3.09
2022-12-06T03:55:57.611Z,3.09
2022-12-06T03:58:27.148Z,3.09
2022-12-06T04:01:04.791Z,4.77
2022-12-06T04:03:37.042Z,4.95
2022-12-06T04:06:07.188Z,4.65
2022-12-06T04:08:37.084Z,4.67
2022-12-06T04:11:06.874Z,4.66
2022-12-06T04:13:36.568Z,4.36
2022-12-06T04:16:26.441Z,4.42
2022-12-06T04:18:56.311Z,4.13
2022-12-06T04:21:38.305Z,3.82
2022-12-06T04:24:08.897Z,3.68
2022-12-06T04:26:38.475Z,3.65
2022-12-06T04:29:20.446Z,3.54
2022-12-06T04:32:02.500Z,3.71
2022-12-06T04:34:47.100Z,3.49
2022-12-06T04:37:29.123Z,3.47
2022-12-06T04:39:59.163Z,3.53
2022-12-06T04:42:41.401Z,3.51
2022-12-06T04:45:12.717Z,3.50
2022-12-06T04:47:42.245Z,3.78
2022-12-06T04:50:14.472Z,3.59
2022-12-06T04:52:43.986Z,3.62
2022-12-06T04:55:13.612Z,3.76
2022-12-06T04:57:43.382Z,3.73
2022-12-06T05:00:13.997Z,3.72
2022-12-06T05:02:43.525Z,3.71
2022-12-06T05:05:15.635Z,3.64
2022-12-06T05:07:45.232Z,3.89
2022-12-06T05:10:14.824Z,3.69
2022-12-06T05:12:44.458Z,3.69
2022-12-06T05:15:15.967Z,3.67
2022-12-06T05:17:45.604Z,3.65
2022-12-06T05:20:18.086Z,3.57
2022-12-06T05:22:47.604Z,3.66
2022-12-06T05:25:17.194Z,3.73
2022-12-06T05:27:46.882Z,3.84
2022-12-06T05:30:16.942Z,3.50
2022-12-06T05:32:46.516Z,3.35
2022-12-06T05:35:18.705Z,3.43
2022-12-06T05:37:48.234Z,3.54
2022-12-06T05:40:17.838Z,3.65
2022-12-06T05:42:47.342Z,3.71
2022-12-06T05:45:16.878Z,3.82
2022-12-06T05:47:46.423Z,3.91
2022-12-06T05:50:18.736Z,3.88
2022-12-06T05:52:48.229Z,3.68
2022-12-06T05:55:17.881Z,3.49
2022-12-06T05:57:47.585Z,3.54
2022-12-06T06:00:18.220Z,3.40
2022-12-06T06:02:48.872Z,3.29
2022-12-06T06:05:21.553Z,3.57
2022-12-06T06:07:51.362Z,3.32
2022-12-06T06:10:21.382Z,3.26
2022-12-06T06:12:50.959Z,3.34
2022-12-06T06:15:21.066Z,3.18
2022-12-06T06:17:50.582Z,2.99
2022-12-06T06:20:22.942Z,3.13
2022-12-06T06:22:52.463Z,3.23
2022-12-06T06:25:22.106Z,3.24
2022-12-06T06:27:51.685Z,3.23
2022-12-06T06:30:21.718Z,3.10
2022-12-06T06:32:51.242Z,3.26
2022-12-06T06:35:23.370Z,3.09
2022-12-06T06:37:52.879Z,3.01
2022-12-06T06:40:22.478Z,3.07
2022-12-06T06:42:52.069Z,3.00
2022-12-06T06:45:28.181Z,2.99
2022-12-06T06:47:58.367Z,2.87
2022-12-06T06:50:30.936Z,2.89
2022-12-06T06:53:00.436Z,2.99
2022-12-06T06:55:30.322Z,2.96
2022-12-06T06:57:59.867Z,2.92
2022-12-06T07:00:29.430Z,2.87
2022-12-06T07:02:59.028Z,2.89
2022-12-06T07:05:31.303Z,3.05
2022-12-06T07:08:00.871Z,3.83
2022-12-06T07:10:31.611Z,4.50
2022-12-06T07:13:01.192Z,4.30
2022-12-06T07:15:30.726Z,4.16
2022-12-06T07:18:00.280Z,4.38
2022-12-06T07:20:32.480Z,4.02
2022-12-06T07:23:02.031Z,3.97
2022-12-06T07:25:32.056Z,3.79
2022-12-06T07:28:01.599Z,3.81
2022-12-06T07:30:31.302Z,3.92
2022-12-06T07:33:01.503Z,3.77
2022-12-06T07:36:03.657Z,3.42
2022-12-06T07:38:23.166Z,3.24
2022-12-06T07:41:07.962Z,3.29
2022-12-06T07:43:50.006Z,3.26
2022-12-06T07:46:19.615Z,3.10
2022-12-06T07:48:49.158Z,3.02
2022-12-06T07:51:21.257Z,2.96
2022-12-06T07:53:50.816Z,3.03
2022-12-06T07:56:20.343Z,2.97
2022-12-06T07:58:49.910Z,3.63
2022-12-06T08:01:19.458Z,3.42
2022-12-06T08:03:49.035Z,3.09
2022-12-06T08:06:21.146Z,2.94
2022-12-06T08:08:50.743Z,2.78
2022-12-06T08:11:20.685Z,2.83
2022-12-06T08:13:50.203Z,2.80
2022-12-06T08:16:20.160Z,2.77
2022-12-06T08:18:49.969Z,2.73
2022-12-06T08:21:22.168Z,2.66
2022-12-06T08:23:51.700Z,2.62
2022-12-06T08:26:21.418Z,2.72
2022-12-06T08:28:51.304Z,2.62
2022-12-06T08:31:22.120Z,2.62
2022-12-06T08:33:52.557Z,2.58
2022-12-06T08:36:25.792Z,2.63
2022-12-06T08:38:55.531Z,2.50
2022-12-06T08:41:38.190Z,2.51
2022-12-06T08:44:08.423Z,2.58
2022-12-06T08:46:38.457Z,2.44
2022-12-06T08:49:08.306Z,2.59
2022-12-06T08:51:40.454Z,2.50
2022-12-06T08:54:11.219Z,2.55
2022-12-06T08:56:40.866Z,2.54
2022-12-06T08:59:10.916Z,2.56
2022-12-06T09:01:40.990Z,2.59
2022-12-06T09:04:12.272Z,2.60
2022-12-06T09:06:45.651Z,2.52
2022-12-06T09:09:16.758Z,2.48
2022-12-06T09:11:47.258Z,2.50
2022-12-06T09:14:22.042Z,2.53
2022-12-06T09:16:53.060Z,2.50
2022-12-06T09:19:22.911Z,2.48
2022-12-06T09:21:55.047Z,2.55
2022-12-06T09:24:27.333Z,2.53
2022-12-06T09:26:57.025Z,2.48
2022-12-06T09:29:26.738Z,2.45
2022-12-06T09:31:56.375Z,2.48
2022-12-06T09:34:26.003Z,2.49
2022-12-06T09:37:01.304Z,2.45
2022-12-06T09:39:33.973Z,2.49
2022-12-06T09:42:30.478Z,2.50
2022-12-06T09:45:16.048Z,2.41
2022-12-06T09:47:56.560Z,2.50
2022-12-06T09:50:31.709Z,2.55
2022-12-06T09:53:14.052Z,2.56
2022-12-06T09:55:53.292Z,2.59
2022-12-06T09:58:34.190Z,2.73
2022-12-06T10:01:10.113Z,2.80
2022-12-06T10:03:49.177Z,2.76
2022-12-06T10:06:20.234Z,2.73
2022-12-06T10:09:09.065Z,2.84
2022-12-06T10:11:47.032Z,2.88
2022-12-06T10:14:28.101Z,2.74
2022-12-06T10:17:08.673Z,2.90
2022-12-06T10:19:49.037Z,3.02
2022-12-06T10:22:22.628Z,3.05
2022-12-06T10:25:02.026Z,3.40
2022-12-06T10:27:39.979Z,3.22
2022-12-06T10:30:14.576Z,3.26
2022-12-06T10:33:05.690Z,3.13
2022-12-06T10:35:45.071Z,3.01
2022-12-06T10:38:23.076Z,2.96
2022-12-06T10:41:03.198Z,2.72
2022-12-06T10:43:39.205Z,2.67
2022-12-06T10:46:24.867Z,2.68
2022-12-06T10:49:01.268Z,2.61
2022-12-06T10:51:36.101Z,2.58
2022-12-06T10:54:15.183Z,2.54
2022-12-06T10:56:47.778Z,2.49
2022-12-06T10:59:27.121Z,2.45
2022-12-06T11:02:01.123Z,2.50
2022-12-06T11:04:34.906Z,2.49
2022-12-06T11:07:09.044Z,4.37
2022-12-06T11:09:42.287Z,5.06
2022-12-06T11:12:31.245Z,5.10
2022-12-06T11:15:04.824Z,3.65
2022-12-06T11:17:35.693Z,3.19
2022-12-06T11:20:09.450Z,3.05
2022-12-06T11:22:43.630Z,2.87
2022-12-06T11:25:19.900Z,2.75
2022-12-06T11:27:53.733Z,2.80
2022-12-06T11:30:24.433Z,2.58
2022-12-06T11:32:55.641Z,2.41
2022-12-06T11:35:28.732Z,2.35
2022-12-06T11:38:00.914Z,2.41
2022-12-06T11:40:32.458Z,2.39
2022-12-06T11:43:07.262Z,2.34
2022-12-06T11:45:38.173Z,2.31
2022-12-06T11:48:16.158Z,2.29
2022-12-06T11:50:46.986Z,2.23
2022-12-06T11:53:23.217Z,2.24
2022-12-06T11:55:55.182Z,2.15
2022-12-06T11:58:31.047Z,2.18
2022-12-06T12:01:04.251Z,2.25
2022-12-06T12:03:35.418Z,2.16
2022-12-06T12:06:15.918Z,2.20
2022-12-06T12:08:54.142Z,2.27
2022-12-06T12:11:24.606Z,2.27
2022-12-06T12:13:59.077Z,2.28
2022-12-06T12:16:31.647Z,2.28
2022-12-06T12:19:03.352Z,2.29
2022-12-06T12:21:39.263Z,2.25
2022-12-06T12:24:30.046Z,2.25
2022-12-06T12:26:59.639Z,2.35
2022-12-06T12:29:31.902Z,2.30
2022-12-06T12:32:02.536Z,2.20
2022-12-06T12:34:33.254Z,2.29
2022-12-06T12:37:04.627Z,2.32
2022-12-06T12:39:36.442Z,2.45
2022-12-06T12:42:06.504Z,2.45
2022-12-06T12:44:40.877Z,2.52
2022-12-06T12:47:20.006Z,2.46
2022-12-06T12:50:03.581Z,2.38
2022-12-06T12:52:37.133Z,2.35
2022-12-06T12:55:18.697Z,2.13
2022-12-06T12:57:50.074Z,2.17
2022-12-06T13:00:27.419Z,2.19
2022-12-06T13:03:00.521Z,2.18
2022-12-06T13:05:34.720Z,2.01
2022-12-06T13:08:10.099Z,1.98
2022-12-06T13:10:41.547Z,1.88
2022-12-06T13:13:17.363Z,2.00
2022-12-06T13:15:51.319Z,2.77
2022-12-06T13:18:23.866Z,3.98
2022-12-06T13:20:56.518Z,3.51
2022-12-06T13:23:28.123Z,4.05
2022-12-06T13:26:04.370Z,3.71
2022-12-06T13:28:36.412Z,3.29
2022-12-06T13:31:14.619Z,2.86
2022-12-06T13:33:49.890Z,2.87
2022-12-06T13:36:20.357Z,2.68
2022-12-06T13:38:50.990Z,2.41
2022-12-06T13:42:07.633Z,2.35
2022-12-06T13:44:44.402Z,2.38
2022-12-06T13:47:51.945Z,2.36
2022-12-06T13:50:51.596Z,2.17
2022-12-06T13:53:21.629Z,2.16
2022-12-06T13:56:01.853Z,2.16
2022-12-06T13:58:54.146Z,2.10
2022-12-06T14:01:43.074Z,2.23
2022-12-06T14:04:39.629Z,2.16
2022-12-06T14:09:43.725Z,2.15
2022-12-06T14:12:21.198Z,2.14
2022-12-06T14:15:00.118Z,2.25
2022-12-06T14:18:00.697Z,2.16
2022-12-06T14:20:30.130Z,2.15
2022-12-06T14:22:59.939Z,2.16
2022-12-06T14:25:31.729Z,2.04
2022-12-06T14:28:06.754Z,2.02
2022-12-06T14:30:36.836Z,2.02
2022-12-06T14:33:20.393Z,2.00
2022-12-06T14:35:56.743Z,1.99
2022-12-06T14:38:27.971Z,1.96
2022-12-06T14:41:10.358Z,1.91
2022-12-06T14:43:40.365Z,1.95
2022-12-06T14:46:13.088Z,2.01
2022-12-06T14:48:55.199Z,2.01
2022-12-06T14:51:29.216Z,2.05
2022-12-06T14:54:01.887Z,2.06
2022-12-06T14:56:34.411Z,2.02
2022-12-06T14:59:12.354Z,2.12
2022-12-06T15:01:49.920Z,2.02
2022-12-06T15:04:28.079Z,1.92
2022-12-06T15:07:00.396Z,2.01
2022-12-06T15:09:32.115Z,1.92
2022-12-06T15:12:35.106Z,1.86
2022-12-06T15:15:04.747Z,1.88
2022-12-06T15:17:34.444Z,1.79
2022-12-06T15:20:14.114Z,1.80
2022-12-06T15:22:46.511Z,1.82
2022-12-06T15:25:16.630Z,1.88
2022-12-06T15:27:46.223Z,1.79
2022-12-06T15:30:16.433Z,1.67
2022-12-06T15:32:47.101Z,1.63
2022-12-06T15:35:20.164Z,1.58
2022-12-06T15:37:52.462Z,1.49
2022-12-06T15:40:23.056Z,1.45
2022-12-06T15:42:56.575Z,1.41
2022-12-06T15:45:28.732Z,1.40
2022-12-06T15:47:58.311Z,1.33
2022-12-06T15:50:28.905Z,1.31
2022-12-06T15:53:01.040Z,1.24
2022-12-06T15:55:31.002Z,1.22
2022-12-06T15:58:00.642Z,1.12
2022-12-06T16:00:30.242Z,1.01
2022-12-06T16:02:59.934Z,0.93
2022-12-06T16:05:29.782Z,0.91
2022-12-06T16:08:02.070Z,0.96
2022-12-06T16:10:55.599Z,0.87
2022-12-06T16:13:24.686Z,0.84
2022-12-06T16:15:54.757Z,0.75
2022-12-06T16:18:24.350Z,0.80
2022-12-06T16:20:53.971Z,0.73
2022-12-06T16:24:11.833Z,0.69
2022-12-06T16:26:31.079Z,0.80
2022-12-06T16:29:01.037Z,0.83
2022-12-06T16:31:33.148Z,0.75
2022-12-06T16:34:06.022Z,0.70
2022-12-06T16:36:36.156Z,0.60
2022-12-06T16:39:08.589Z,0.60
2022-12-06T16:41:38.980Z,0.56
2022-12-06T16:44:08.583Z,0.54
2022-12-06T16:46:38.927Z,0.55
2022-12-06T16:49:44.195Z,0.43
2022-12-06T16:51:59.940Z,0.39
2022-12-06T16:54:32.089Z,0.32
2022-12-06T16:57:01.747Z,0.24
2022-12-06T16:59:31.273Z,0.19
2022-12-06T17:02:04.150Z,0.16
2022-12-06T17:04:35.560Z,0.15
2022-12-06T17:07:05.179Z,0.10
2022-12-06T17:09:37.353Z,0.19
2022-12-06T17:12:12.728Z,0.19
2022-12-06T17:14:42.943Z,0.13
2022-12-06T17:17:16.141Z,0.14
2022-12-06T17:19:47.054Z,0.17
2022-12-06T17:22:18.977Z,0.16
2022-12-06T17:24:51.569Z,0.08
2022-12-06T17:27:21.258Z,0.02
2022-12-06T17:29:51.030Z,0.05
2022-12-06T17:32:21.259Z,0.10
2022-12-06T17:34:50.913Z,0.07
2022-12-06T17:37:20.510Z,0.02
2022-12-06T17:39:52.818Z,0.07
2022-12-06T17:42:34.842Z,0.08
2022-12-06T17:45:05.198Z,0.08
2022-12-06T17:47:35.233Z,-0.05
2022-12-06T17:50:05.559Z,-0.10
2022-12-06T17:52:35.382Z,-0.08
2022-12-06T17:55:09.445Z,0.03
2022-12-06T17:57:39.131Z,0.11
2022-12-06T18:00:10.333Z,0.10
2022-12-06T18:02:40.163Z,-0.01
2022-12-06T18:05:10.754Z,0.05
2022-12-06T18:07:40.474Z,0.05
2022-12-06T18:10:14.446Z,0.01
2022-12-06T18:12:43.999Z,0.10
2022-12-06T18:15:35.822Z,0.16
2022-12-06T18:18:05.448Z,0.13
2022-12-06T18:20:35.047Z,0.13
2022-12-06T18:23:04.936Z,0.17
2022-12-06T18:25:39.992Z,0.06
2022-12-06T18:30:48.587Z,0.09
2022-12-06T18:33:21.350Z,-0.02
2022-12-06T18:35:53.554Z,-0.01
2022-12-06T18:38:23.641Z,-0.02
2022-12-06T18:40:53.146Z,1.02
2022-12-06T18:43:22.713Z,1.45
2022-12-06T18:46:00.719Z,1.60
2022-12-06T18:48:31.280Z,1.11
2022-12-06T18:51:01.115Z,1.00
2022-12-06T18:53:30.692Z,0.98
2022-12-06T18:56:00.298Z,0.98
2022-12-06T18:58:29.896Z,0.97
2022-12-06T19:01:02.147Z,0.79
2022-12-06T19:03:32.380Z,0.75
2022-12-06T19:06:03.523Z,0.80
2022-12-06T19:08:33.949Z,0.67
2022-12-06T19:11:04.064Z,0.52
2022-12-06T19:13:33.694Z,0.27
2022-12-06T19:16:07.373Z,0.10
2022-12-06T19:18:36.961Z,-0.02
2022-12-06T19:21:06.646Z,-0.11
2022-12-06T19:23:36.342Z,-0.10
2022-12-06T19:26:06.989Z,-0.04
2022-12-06T19:28:36.856Z,-0.06
2022-12-06T19:31:11.163Z,-0.04
2022-12-06T19:33:42.626Z,-0.06
2022-12-06T19:36:16.103Z,-0.17
2022-12-06T19:38:46.376Z,-0.22
2022-12-06T19:41:18.402Z,-0.20
2022-12-06T19:44:00.514Z,-0.12
2022-12-06T19:46:33.864Z,-0.16
2022-12-06T19:49:05.742Z,-0.19
2022-12-06T19:51:37.271Z,-0.15
2022-12-06T19:54:08.072Z,0.09
2022-12-06T19:56:38.713Z,0.00
2022-12-06T19:59:11.805Z,-0.09
2022-12-06T20:01:45.727Z,-0.04
2022-12-06T20:04:17.329Z,-0.04
2022-12-06T20:06:48.187Z,-0.01
2022-12-06T20:09:19.148Z,-0.01
2022-12-06T20:12:05.250Z,0.16
2022-12-06T20:14:40.423Z,0.08
2022-12-06T20:17:14.213Z,0.10
2022-12-06T20:19:46.268Z,0.24
2022-12-06T20:22:17.162Z,0.20
2022-12-06T20:24:46.982Z,0.15
2022-12-06T20:27:16.809Z,0.12
2022-12-06T20:29:46.361Z,0.13
2022-12-06T20:32:18.531Z,0.18
2022-12-06T20:34:48.070Z,0.18
2022-12-06T20:37:18.030Z,0.18
2022-12-06T20:39:47.611Z,0.25
2022-12-06T20:42:17.120Z,0.25
2022-12-06T20:44:46.714Z,0.24
2022-12-06T20:47:19.018Z,0.26
2022-12-06T20:49:48.665Z,0.26
2022-12-06T20:52:18.247Z,0.29
2022-12-06T20:54:47.860Z,0.28
2022-12-06T20:57:17.407Z,0.32
2022-12-06T20:59:47.027Z,0.38
2022-12-06T21:02:19.303Z,0.40
2022-12-06T21:04:49.203Z,0.35
2022-12-06T21:07:18.826Z,0.42
2022-12-06T21:09:48.481Z,0.42
2022-12-06T21:12:20.213Z,0.40
2022-12-06T21:14:49.814Z,0.39
2022-12-06T21:17:22.021Z,0.39
2022-12-06T21:19:51.770Z,0.40
2022-12-06T21:22:21.683Z,0.38
2022-12-06T21:24:51.307Z,0.35
2022-12-06T21:27:20.899Z,0.39
2022-12-06T21:29:50.422Z,0.36
2022-12-06T21:32:22.723Z,0.36
2022-12-06T21:34:52.314Z,0.39
2022-12-06T21:37:21.895Z,0.42
2022-12-06T21:39:51.587Z,0.44
2022-12-06T21:42:21.749Z,0.47
2022-12-06T21:44:51.669Z,0.50
2022-12-06T21:47:23.858Z,0.55
2022-12-06T21:49:53.430Z,0.55
2022-12-06T21:52:23.038Z,0.56
2022-12-06T21:54:52.710Z,0.60
2022-12-06T21:57:22.357Z,0.61
2022-12-06T21:59:51.967Z,0.63
2022-12-06T22:02:24.242Z,0.67
2022-12-06T22:04:53.946Z,0.72
2022-12-06T22:07:23.574Z,0.77
2022-12-06T22:09:53.610Z,0.83
2022-12-06T22:12:23.182Z,0.85
2022-12-06T22:14:52.770Z,0.93
2022-12-06T22:17:25.234Z,0.89
2022-12-06T22:19:54.890Z,0.90
2022-12-06T22:22:24.737Z,0.89
2022-12-06T22:24:54.292Z,0.98
2022-12-06T22:27:23.902Z,0.99
2022-12-06T22:29:54.307Z,0.98
2022-12-06T22:32:26.525Z,1.11
2022-12-06T22:34:56.110Z,1.14
2022-12-06T22:37:28.626Z,1.13
2022-12-06T22:39:58.663Z,1.13
2022-12-06T22:42:28.391Z,1.15
2022-12-06T22:44:57.906Z,1.15
2022-12-06T22:47:30.107Z,1.17
2022-12-06T22:49:59.981Z,1.18
2022-12-06T22:52:29.745Z,1.23
2022-12-06T22:55:00.329Z,1.24
2022-12-06T22:57:29.959Z,1.26
2022-12-06T22:59:59.818Z,1.28
2022-12-06T23:02:32.434Z,1.28
2022-12-06T23:05:02.042Z,1.33
2022-12-06T23:07:31.650Z,1.34
2022-12-06T23:10:01.541Z,1.39
2022-12-06T23:12:31.270Z,1.44
2022-12-06T23:15:01.319Z,1.44
2022-12-06T23:17:34.110Z,1.48
2022-12-06T23:20:03.947Z,1.50
2022-12-06T23:22:34.528Z,1.56
2022-12-06T23:25:04.153Z,1.60
2022-12-06T23:27:33.746Z,1.61
2022-12-06T23:30:03.623Z,1.56
2022-12-06T23:32:35.999Z,1.56
2022-12-06T23:35:05.621Z,1.57
2022-12-06T23:37:35.137Z,1.52
2022-12-06T23:40:04.793Z,1.58
2022-12-06T23:42:34.325Z,1.50
2022-12-06T23:45:03.889Z,1.53
2022-12-06T23:47:36.310Z,1.45
2022-12-06T23:50:06.077Z,1.48
2022-12-06T23:52:35.663Z,1.59
2022-12-06T23:55:05.337Z,1.50
2022-12-06T23:57:34.879Z,1.48
